createdAt,value
2018-09-02T00:01:27.028Z,18.90
2018-09-02T00:03:55.547Z,17.48
2018-09-02T00:06:24.088Z,16.52
2018-09-02T00:08:52.851Z,23.42
2018-09-02T00:11:21.366Z,25.08
2018-09-02T00:13:49.857Z,20.25
2018-09-02T00:16:18.375Z,22.73
2018-09-02T00:18:46.875Z,24.82
2018-09-02T00:21:15.442Z,23.38
2018-09-02T00:23:44.001Z,23.62
2018-09-02T00:26:12.741Z,22.40
2018-09-02T00:28:41.281Z,23.57
2018-09-02T00:31:09.812Z,24.47
2018-09-02T00:33:38.343Z,28.80
2018-09-02T00:36:06.855Z,22.82
2018-09-02T00:38:35.388Z,21.25
2018-09-02T00:41:03.918Z,21.25
2018-09-02T00:43:32.500Z,30.95
2018-09-02T00:46:00.996Z,28.27
2018-09-02T00:48:29.494Z,35.28
2018-09-02T00:50:58.047Z,32.75
2018-09-02T00:53:26.537Z,29.75
2018-09-02T00:55:55.029Z,30.05
2018-09-02T00:58:23.513Z,32.08
2018-09-02T01:00:52.005Z,31.17
2018-09-02T01:03:20.852Z,27.27
2018-09-02T01:05:50.578Z,27.05
2018-09-02T01:08:19.208Z,28.02
2018-09-02T01:10:48.561Z,22.93
2018-09-02T01:13:17.092Z,31.07
2018-09-02T01:15:46.369Z,31.87
2018-09-02T01:18:14.915Z,31.68
2018-09-02T01:20:43.399Z,34.75
2018-09-02T01:23:12.067Z,28.50
2018-09-02T01:25:40.896Z,32.40
2018-09-02T01:28:09.888Z,33.92
2018-09-02T01:30:38.918Z,37.95
2018-09-02T01:33:07.866Z,38.78
2018-09-02T01:35:36.449Z,34.73
2018-09-02T01:38:05.969Z,32.80
2018-09-02T01:40:35.464Z,42.67
2018-09-02T01:43:04.673Z,51.00
2018-09-02T01:45:33.467Z,47.13
2018-09-02T01:48:02.460Z,55.30
2018-09-02T01:50:30.989Z,66.30
2018-09-02T01:52:59.503Z,50.15
2018-09-02T01:55:28.004Z,84.35
2018-09-02T01:57:56.520Z,108.80
2018-09-02T02:00:25.039Z,109.40
2018-09-02T02:02:53.536Z,129.23
2018-09-02T02:05:22.047Z,146.57
2018-09-02T02:07:50.673Z,141.82
2018-09-02T02:10:19.164Z,133.87
2018-09-02T02:12:47.658Z,143.82
2018-09-02T02:15:16.265Z,168.02
2018-09-02T02:17:44.756Z,141.82
2018-09-02T02:20:13.267Z,175.38
2018-09-02T02:22:41.777Z,148.78
2018-09-02T02:25:10.260Z,161.65
2018-09-02T02:27:39.642Z,156.70
2018-09-02T02:30:08.235Z,183.72
2018-09-02T02:32:36.746Z,141.47
2018-09-02T02:35:05.366Z,168.93
2018-09-02T02:37:33.889Z,189.28
2018-09-02T02:40:02.406Z,139.47
2018-09-02T02:42:30.900Z,154.85
2018-09-02T02:44:59.408Z,151.07
2018-09-02T02:47:27.903Z,150.47
2018-09-02T02:49:56.448Z,139.32
2018-09-02T02:52:29.170Z,129.00
2018-09-02T02:54:57.661Z,135.15
2018-09-02T02:57:26.160Z,130.75
2018-09-02T02:59:54.678Z,109.57
2018-09-02T03:02:23.233Z,136.32
2018-09-02T03:04:51.848Z,121.50
2018-09-02T03:07:20.370Z,124.22
2018-09-02T03:09:48.900Z,116.25
2018-09-02T03:12:17.441Z,118.93
2018-09-02T03:14:45.944Z,128.10
2018-09-02T03:17:14.428Z,138.75
2018-09-02T03:19:42.922Z,142.28
2018-09-02T03:22:11.636Z,132.65
2018-09-02T03:24:40.137Z,107.78
2018-09-02T03:27:08.638Z,144.13
2018-09-02T03:29:37.144Z,119.13
2018-09-02T03:32:05.664Z,132.43
2018-09-02T03:34:34.345Z,143.37
2018-09-02T03:37:02.849Z,127.65
2018-09-02T03:39:31.715Z,136.47
2018-09-02T03:42:00.191Z,143.00
2018-09-02T03:44:28.686Z,143.02
2018-09-02T03:46:57.168Z,160.97
2018-09-02T03:49:25.661Z,127.32
2018-09-02T03:51:54.276Z,114.90
2018-09-02T03:54:22.766Z,134.95
2018-09-02T03:56:51.269Z,127.17
2018-09-02T03:59:19.818Z,117.55
2018-09-02T04:01:48.322Z,119.72
2018-09-02T04:04:16.847Z,108.00
2018-09-02T04:06:45.385Z,125.55
2018-09-02T04:09:13.902Z,119.72
2018-09-02T04:11:42.450Z,106.67
2018-09-02T04:14:10.973Z,123.05
2018-09-02T04:16:39.466Z,129.85
2018-09-02T04:19:07.977Z,104.90
2018-09-02T04:21:36.604Z,118.62
2018-09-02T04:24:05.123Z,122.00
2018-09-02T04:26:33.645Z,124.27
2018-09-02T04:29:02.185Z,113.40
2018-09-02T04:31:30.768Z,121.40
2018-09-02T04:33:59.281Z,131.03
2018-09-02T04:36:27.785Z,118.47
2018-09-02T04:38:56.417Z,112.90
2018-09-02T04:41:24.994Z,107.67
2018-09-02T04:43:53.513Z,112.35
2018-09-02T04:46:22.477Z,127.90
2018-09-02T04:48:50.992Z,118.80
2018-09-02T04:51:19.763Z,116.17
2018-09-02T04:53:48.271Z,108.35
2018-09-02T04:56:16.765Z,124.75
2018-09-02T04:58:45.277Z,137.47
2018-09-02T05:01:13.782Z,113.00
2018-09-02T05:03:42.288Z,110.55
2018-09-02T05:06:10.829Z,117.33
2018-09-02T05:08:39.326Z,103.05
2018-09-02T05:11:07.869Z,133.82
2018-09-02T05:13:36.438Z,115.30
2018-09-02T05:16:04.931Z,107.95
2018-09-02T05:18:33.409Z,121.65
2018-09-02T05:21:01.930Z,131.80
2018-09-02T05:23:30.736Z,127.58
2018-09-02T05:25:59.265Z,122.25
2018-09-02T05:28:27.741Z,130.90
2018-09-02T05:30:56.387Z,113.65
2018-09-02T05:33:24.832Z,120.25
2018-09-02T05:35:53.477Z,146.57
2018-09-02T05:38:22.440Z,114.28
2018-09-02T05:40:50.977Z,149.55
2018-09-02T05:43:19.495Z,149.40
2018-09-02T05:45:48.019Z,147.55
2018-09-02T05:48:16.516Z,130.20
2018-09-02T05:50:45.020Z,147.13
2018-09-02T05:53:13.540Z,162.65
2018-09-02T05:55:42.034Z,179.65
2018-09-02T05:58:10.557Z,170.70
2018-09-02T06:00:39.115Z,165.82
2018-09-02T06:03:07.608Z,183.12
2018-09-02T06:05:36.257Z,190.88
2018-09-02T06:08:04.829Z,182.80
2018-09-02T06:10:33.365Z,179.60
2018-09-02T06:13:02.116Z,199.65
2018-09-02T06:15:30.617Z,199.00
2018-09-02T06:17:59.149Z,164.85
2018-09-02T06:20:27.697Z,165.80
2018-09-02T06:22:56.194Z,135.97
2018-09-02T06:25:24.704Z,140.83
2018-09-02T06:27:53.237Z,119.70
2018-09-02T06:30:21.897Z,124.55
2018-09-02T06:32:50.503Z,114.67
2018-09-02T06:35:19.304Z,87.33
2018-09-02T06:37:47.822Z,82.60
2018-09-02T06:40:16.353Z,43.83
2018-09-02T06:42:44.983Z,23.87
2018-09-02T06:45:13.464Z,20.20
2018-09-02T06:47:42.209Z,15.03
2018-09-02T06:50:10.777Z,18.03
2018-09-02T06:52:39.267Z,18.30
2018-09-02T06:55:07.780Z,20.60
2018-09-02T06:57:36.296Z,23.80
2018-09-02T07:00:04.840Z,12.40
2018-09-02T07:02:33.414Z,13.47
2018-09-02T07:05:01.937Z,12.97
2018-09-02T07:07:30.621Z,14.93
2018-09-02T07:09:59.062Z,13.67
2018-09-02T07:12:27.593Z,12.80
2018-09-02T07:14:56.098Z,11.10
2018-09-02T07:17:24.701Z,11.70
2018-09-02T07:19:53.221Z,11.90
2018-09-02T07:22:21.736Z,11.77
2018-09-02T07:24:50.215Z,10.27
2018-09-02T07:27:18.717Z,12.37
2018-09-02T07:29:47.204Z,11.23
2018-09-02T07:32:15.699Z,23.47
2018-09-02T07:34:44.219Z,13.20
2018-09-02T07:37:12.762Z,11.07
2018-09-02T07:39:41.266Z,10.80
2018-09-02T07:42:09.774Z,12.97
2018-09-02T07:44:38.772Z,12.23
2018-09-02T07:47:07.262Z,10.57
2018-09-02T07:49:35.797Z,12.03
2018-09-02T07:52:04.326Z,11.57
2018-09-02T07:54:32.900Z,11.97
2018-09-02T07:57:01.441Z,13.30
2018-09-02T07:59:29.970Z,9.77
2018-09-02T08:01:58.473Z,11.63
2018-09-02T08:04:27.034Z,10.17
2018-09-02T08:06:55.546Z,14.10
2018-09-02T08:09:24.049Z,13.33
2018-09-02T08:11:52.669Z,11.67
2018-09-02T08:14:21.178Z,12.57
2018-09-02T08:16:49.695Z,13.00
2018-09-02T08:19:18.214Z,11.23
2018-09-02T08:21:46.718Z,15.10
2018-09-02T08:24:15.234Z,10.03
2018-09-02T08:26:43.881Z,12.60
2018-09-02T08:29:12.342Z,11.40
2018-09-02T08:31:40.863Z,9.43
2018-09-02T08:34:09.719Z,8.60
2018-09-02T08:36:38.374Z,15.00
2018-09-02T08:39:09.829Z,9.77
2018-09-02T08:41:38.401Z,10.17
2018-09-02T08:44:07.056Z,9.00
2018-09-02T08:46:35.594Z,11.07
2018-09-02T08:49:04.155Z,8.80
2018-09-02T08:51:33.038Z,8.50
2018-09-02T08:54:01.586Z,8.50
2018-09-02T08:56:30.630Z,11.27
2018-09-02T08:58:59.126Z,10.00
2018-09-02T09:01:27.665Z,8.13
2018-09-02T09:03:56.162Z,7.17
2018-09-02T09:06:25.235Z,26.63
2018-09-02T09:08:54.088Z,9.33
2018-09-02T09:11:22.546Z,7.07
2018-09-02T09:13:51.229Z,6.77
2018-09-02T09:16:20.022Z,9.40
2018-09-02T09:18:48.472Z,6.10
2018-09-02T09:21:16.952Z,5.73
2018-09-02T09:23:45.468Z,7.63
2018-09-02T09:26:14.006Z,4.57
2018-09-02T09:28:42.470Z,7.37
2018-09-02T09:31:11.162Z,5.03
2018-09-02T09:33:39.820Z,3.60
2018-09-02T09:36:08.425Z,6.10
2018-09-02T09:38:36.936Z,4.67
2018-09-02T09:41:05.889Z,3.43
2018-09-02T09:43:34.392Z,3.60
2018-09-02T09:46:03.006Z,4.27
2018-09-02T09:48:31.452Z,3.30
2018-09-02T09:50:59.956Z,10.77
2018-09-02T09:53:28.476Z,2.80
2018-09-02T09:55:57.014Z,2.57
2018-09-02T09:58:25.571Z,4.43
2018-09-02T10:00:54.069Z,5.90
2018-09-02T10:03:23.029Z,2.60
2018-09-02T10:05:51.516Z,3.07
2018-09-02T10:08:20.055Z,7.50
2018-09-02T10:10:48.582Z,2.07
2018-09-02T10:13:17.059Z,4.23
2018-09-02T10:15:45.645Z,6.37
2018-09-02T10:18:14.318Z,2.03
2018-09-02T10:20:42.747Z,2.70
2018-09-02T10:23:11.270Z,2.47
2018-09-02T10:25:39.747Z,5.33
2018-09-02T10:28:08.290Z,1.83
2018-09-02T10:30:36.792Z,3.47
2018-09-02T10:33:05.406Z,3.43
2018-09-02T10:35:33.920Z,6.40
2018-09-02T10:38:02.468Z,2.30
2018-09-02T10:40:31.010Z,2.23
2018-09-02T10:42:59.503Z,2.30
2018-09-02T10:45:28.170Z,2.20
2018-09-02T10:47:56.714Z,20.97
2018-09-02T10:50:25.216Z,3.10
2018-09-02T10:52:53.735Z,2.20
2018-09-02T10:55:22.377Z,2.70
2018-09-02T10:57:50.870Z,1.93
2018-09-02T11:00:19.374Z,3.37
2018-09-02T11:02:47.864Z,4.50
2018-09-02T11:05:16.351Z,3.33
2018-09-02T11:07:44.922Z,3.03
2018-09-02T11:10:13.373Z,3.43
2018-09-02T11:12:41.882Z,2.10
2018-09-02T11:15:10.425Z,2.07
2018-09-02T11:17:38.928Z,1.80
2018-09-02T11:20:07.767Z,3.13
2018-09-02T11:22:36.310Z,2.10
2018-09-02T11:25:04.837Z,2.30
2018-09-02T11:27:33.320Z,2.80
2018-09-02T11:30:01.870Z,4.63
2018-09-02T11:32:31.497Z,2.97
2018-09-02T11:35:00.042Z,2.47
2018-09-02T11:37:28.551Z,3.83
2018-09-02T11:39:57.023Z,3.60
2018-09-02T11:42:25.514Z,1.70
2018-09-02T11:44:54.155Z,3.03
2018-09-02T11:47:22.651Z,4.43
2018-09-02T11:49:51.131Z,2.00
2018-09-02T11:52:19.642Z,2.60
2018-09-02T11:54:48.148Z,11.97
2018-09-02T11:57:16.679Z,2.60
2018-09-02T11:59:45.256Z,6.07
2018-09-02T12:02:13.740Z,2.73
2018-09-02T12:04:42.346Z,2.40
2018-09-02T12:07:10.874Z,5.80
2018-09-02T12:09:39.373Z,3.90
2018-09-02T12:12:07.923Z,5.20
2018-09-02T12:14:36.496Z,2.60
2018-09-02T12:17:04.954Z,6.20
2018-09-02T12:19:33.457Z,3.40
2018-09-02T12:22:02.036Z,3.17
2018-09-02T12:24:30.531Z,1.80
2018-09-02T12:26:59.048Z,5.90
2018-09-02T12:29:27.577Z,8.10
2018-09-02T12:31:56.073Z,2.47
2018-09-02T12:34:24.589Z,4.30
2018-09-02T12:36:53.142Z,2.10
2018-09-02T12:39:21.663Z,1.97
2018-09-02T12:41:50.159Z,2.83
2018-09-02T12:44:18.694Z,9.83
2018-09-02T12:46:47.183Z,3.00
2018-09-02T12:49:15.671Z,2.63
2018-09-02T12:51:44.256Z,3.70
2018-09-02T12:54:12.812Z,2.50
2018-09-02T12:56:41.339Z,4.00
2018-09-02T12:59:09.917Z,5.20
2018-09-02T13:01:38.444Z,4.57
2018-09-02T13:04:06.967Z,3.27
2018-09-02T13:06:35.501Z,3.70
2018-09-02T13:09:05.014Z,3.17
2018-09-02T13:11:33.517Z,13.43
2018-09-02T13:14:02.192Z,2.63
2018-09-02T13:16:30.698Z,2.67
2018-09-02T13:18:59.247Z,3.40
2018-09-02T13:21:27.936Z,2.57
2018-09-02T13:23:56.488Z,1.97
2018-09-02T13:26:25.106Z,4.13
2018-09-02T13:28:53.639Z,2.20
2018-09-02T13:31:22.113Z,2.60
2018-09-02T13:33:50.642Z,3.37
2018-09-02T13:36:19.139Z,1.83
2018-09-02T13:38:47.751Z,6.20
2018-09-02T13:41:16.281Z,1.40
2018-09-02T13:43:44.892Z,7.03
2018-09-02T13:46:13.388Z,2.47
2018-09-02T13:48:41.905Z,2.07
2018-09-02T13:51:10.460Z,2.37
2018-09-02T13:53:38.970Z,4.60
2018-09-02T13:56:07.465Z,7.53
2018-09-02T13:58:36.074Z,3.70
2018-09-02T14:01:04.670Z,2.17
2018-09-02T14:03:33.245Z,16.13
2018-09-02T14:06:01.757Z,2.00
2018-09-02T14:08:30.252Z,2.53
2018-09-02T14:10:58.748Z,2.10
2018-09-02T14:13:27.261Z,5.50
2018-09-02T14:15:55.891Z,1.63
2018-09-02T14:18:24.460Z,3.03
2018-09-02T14:20:53.248Z,2.87
2018-09-02T14:23:21.779Z,2.30
2018-09-02T14:25:50.336Z,1.90
2018-09-02T14:28:18.938Z,2.30
2018-09-02T14:30:47.451Z,1.83
2018-09-02T14:33:16.081Z,3.00
2018-09-02T14:35:44.679Z,3.27
2018-09-02T14:38:13.196Z,1.87
2018-09-02T14:40:41.719Z,2.10
2018-09-02T14:43:10.228Z,4.37
2018-09-02T14:45:38.751Z,2.30
2018-09-02T14:48:07.454Z,5.87
2018-09-02T14:50:36.022Z,3.03
2018-09-02T14:53:04.537Z,2.63
2018-09-02T14:55:33.047Z,7.63
2018-09-02T14:58:01.560Z,3.93
2018-09-02T15:00:30.075Z,3.33
2018-09-02T15:02:58.588Z,16.67
2018-09-02T15:05:27.170Z,2.80
2018-09-02T15:07:55.762Z,2.03
2018-09-02T15:10:24.423Z,5.43
2018-09-02T15:12:53.008Z,3.00
2018-09-02T15:15:21.519Z,2.97
2018-09-02T15:17:50.193Z,3.40
2018-09-02T15:20:18.714Z,2.43
2018-09-02T15:22:47.221Z,8.40
2018-09-02T15:25:16.310Z,9.03
2018-09-02T15:27:45.156Z,1.97
2018-09-02T15:30:13.797Z,3.40
2018-09-02T15:32:42.365Z,2.80
2018-09-02T15:35:10.878Z,2.27
2018-09-02T15:37:39.403Z,2.30
2018-09-02T15:40:07.908Z,4.20
2018-09-02T15:42:36.439Z,2.83
2018-09-02T15:45:05.119Z,2.87
2018-09-02T15:47:33.606Z,2.40
2018-09-02T15:50:02.100Z,8.93
2018-09-02T15:52:30.656Z,3.03
2018-09-02T15:54:59.170Z,4.13
2018-09-02T15:57:27.764Z,4.40
2018-09-02T15:59:56.284Z,2.50
2018-09-02T16:02:24.785Z,2.30
2018-09-02T16:04:53.322Z,3.00
2018-09-02T16:07:26.007Z,2.97
2018-09-02T16:09:54.581Z,2.93
2018-09-02T16:12:23.099Z,4.67
2018-09-02T16:14:51.714Z,2.50
2018-09-02T16:17:20.231Z,6.40
2018-09-02T16:19:48.727Z,2.67
2018-09-02T16:22:17.321Z,2.60
2018-09-02T16:24:45.818Z,2.37
2018-09-02T16:27:14.303Z,2.30
2018-09-02T16:29:42.837Z,2.53
2018-09-02T16:32:11.469Z,2.60
2018-09-02T16:34:39.949Z,2.07
2018-09-02T16:37:09.360Z,2.80
2018-09-02T16:39:38.297Z,3.53
2018-09-02T16:42:06.832Z,2.73
2018-09-02T16:44:35.447Z,3.20
2018-09-02T16:47:04.031Z,5.30
2018-09-02T16:49:32.534Z,7.03
2018-09-02T16:52:01.031Z,3.60
2018-09-02T16:54:29.578Z,3.27
2018-09-02T16:56:58.067Z,4.60
2018-09-02T16:59:26.614Z,8.57
2018-09-02T17:01:55.198Z,2.40
2018-09-02T17:04:24.990Z,5.00
2018-09-02T17:06:53.510Z,2.87
2018-09-02T17:09:22.038Z,2.90
2018-09-02T17:11:50.546Z,2.80
2018-09-02T17:14:19.024Z,6.13
2018-09-02T17:16:47.541Z,3.13
2018-09-02T17:19:22.749Z,2.83
2018-09-02T17:21:51.382Z,4.63
2018-09-02T17:24:20.023Z,6.93
2018-09-02T17:26:48.557Z,9.40
2018-09-02T17:29:17.163Z,3.40
2018-09-02T17:31:45.772Z,4.23
2018-09-02T17:34:14.309Z,2.53
2018-09-02T17:36:42.825Z,12.43
2018-09-02T17:39:12.836Z,3.77
2018-09-02T17:41:42.101Z,4.43
2018-09-02T17:44:10.603Z,5.67
2018-09-02T17:46:39.108Z,10.83
2018-09-02T17:49:07.604Z,3.90
2018-09-02T17:51:36.139Z,5.80
2018-09-02T17:54:04.670Z,3.93
2018-09-02T17:56:33.183Z,4.43
2018-09-02T17:59:01.712Z,2.53
2018-09-02T18:01:30.271Z,3.80
2018-09-02T18:03:58.781Z,2.70
2018-09-02T18:06:27.314Z,3.27
2018-09-02T18:08:55.785Z,2.77
2018-09-02T18:11:24.273Z,3.27
2018-09-02T18:13:52.793Z,2.60
2018-09-02T18:16:21.318Z,5.33
2018-09-02T18:18:49.864Z,2.60
2018-09-02T18:21:18.427Z,2.30
2018-09-02T18:23:46.994Z,6.03
2018-09-02T18:26:15.491Z,4.10
2018-09-02T18:28:45.830Z,3.27
2018-09-02T18:31:14.483Z,2.87
2018-09-02T18:33:43.091Z,4.73
2018-09-02T18:36:12.153Z,9.20
2018-09-02T18:38:40.628Z,2.93
2018-09-02T18:41:09.140Z,2.57
2018-09-02T18:43:37.684Z,10.30
2018-09-02T18:46:06.209Z,8.67
2018-09-02T18:48:34.756Z,4.87
2018-09-02T18:51:03.392Z,6.97
2018-09-02T18:53:31.905Z,3.67
2018-09-02T18:56:00.509Z,10.33
2018-09-02T18:58:29.063Z,5.10
2018-09-02T19:00:57.730Z,15.50
2018-09-02T19:03:26.246Z,7.67
2018-09-02T19:05:54.769Z,10.03
2018-09-02T19:08:23.260Z,5.57
2018-09-02T19:10:51.860Z,6.47
2018-09-02T19:13:20.448Z,2.77
2018-09-02T19:15:48.939Z,3.50
2018-09-02T19:18:17.458Z,4.60
2018-09-02T19:20:46.048Z,16.63
2018-09-02T19:23:14.581Z,10.17
2018-09-02T19:25:43.106Z,3.97
2018-09-02T19:28:11.638Z,4.60
2018-09-02T19:30:40.173Z,2.93
2018-09-02T19:33:08.825Z,5.17
2018-09-02T19:35:37.385Z,5.70
2018-09-02T19:38:05.905Z,14.50
2018-09-02T19:40:34.495Z,4.53
2018-09-02T19:43:02.974Z,4.07
2018-09-02T19:45:31.514Z,3.67
2018-09-02T19:48:00.052Z,8.07
2018-09-02T19:50:28.572Z,23.83
2018-09-02T19:52:57.101Z,14.93
2018-09-02T19:55:25.630Z,3.33
2018-09-02T19:57:54.176Z,5.03
2018-09-02T20:00:22.704Z,4.40
2018-09-02T20:02:51.233Z,6.13
2018-09-02T20:05:19.796Z,7.17
2018-09-02T20:07:48.300Z,6.13
2018-09-02T20:10:16.825Z,7.83
2018-09-02T20:12:45.332Z,2.30
2018-09-02T20:15:13.820Z,3.23
2018-09-02T20:17:42.310Z,3.43
2018-09-02T20:20:10.848Z,4.80
2018-09-02T20:22:39.360Z,3.57
2018-09-02T20:25:07.889Z,2.80
2018-09-02T20:27:36.406Z,5.17
2018-09-02T20:30:05.645Z,3.70
2018-09-02T20:32:34.144Z,3.60
2018-09-02T20:35:02.665Z,3.30
2018-09-02T20:37:31.188Z,6.60
2018-09-02T20:39:59.670Z,3.27
2018-09-02T20:42:28.177Z,3.40
2018-09-02T20:44:56.672Z,6.97
2018-09-02T20:47:25.177Z,4.10
2018-09-02T20:49:53.713Z,4.00
2018-09-02T20:52:22.206Z,3.73
2018-09-02T20:54:50.699Z,4.93
2018-09-02T20:57:19.208Z,9.73
2018-09-02T20:59:47.743Z,3.17
2018-09-02T21:02:16.306Z,3.50
2018-09-02T21:04:44.802Z,4.63
2018-09-02T21:07:13.276Z,7.43
2018-09-02T21:09:41.812Z,3.73
2018-09-02T21:12:10.397Z,3.57
2018-09-02T21:14:38.934Z,5.03
2018-09-02T21:17:07.533Z,11.77
2018-09-02T21:19:36.012Z,3.67
2018-09-02T21:22:04.546Z,3.17
2018-09-02T21:24:33.035Z,4.90
2018-09-02T21:27:01.667Z,4.83
2018-09-02T21:29:30.162Z,4.10
2018-09-02T21:31:58.680Z,4.20
2018-09-02T21:34:27.170Z,7.73
2018-09-02T21:36:55.687Z,3.90
2018-09-02T21:39:24.207Z,3.70
2018-09-02T21:41:52.719Z,7.63
2018-09-02T21:44:21.220Z,5.70
2018-09-02T21:46:49.698Z,4.03
2018-09-02T21:49:18.201Z,6.10
2018-09-02T21:51:46.715Z,3.30
2018-09-02T21:54:15.211Z,5.30
2018-09-02T21:56:43.774Z,7.33
2018-09-02T21:59:12.288Z,8.93
2018-09-02T22:01:40.831Z,4.27
2018-09-02T22:04:09.342Z,4.43
2018-09-02T22:06:37.830Z,5.20
2018-09-02T22:09:11.185Z,5.00
2018-09-02T22:11:39.669Z,4.53
2018-09-02T22:14:08.547Z,2.57
2018-09-02T22:16:37.099Z,4.60
2018-09-02T22:19:05.757Z,7.10
2018-09-02T22:21:34.256Z,3.00
2018-09-02T22:24:03.228Z,4.13
2018-09-02T22:26:32.540Z,4.00
2018-09-02T22:29:01.546Z,3.40
2018-09-02T22:31:30.089Z,5.30
2018-09-02T22:33:58.589Z,5.70
2018-09-02T22:36:27.093Z,4.90
2018-09-02T22:38:55.612Z,3.57
2018-09-02T22:41:24.201Z,4.87
2018-09-02T22:43:52.741Z,4.87
2018-09-02T22:46:21.285Z,4.47
2018-09-02T22:48:49.852Z,3.93
2018-09-02T22:51:18.364Z,9.40
2018-09-02T22:53:46.893Z,5.73
2018-09-02T22:56:15.399Z,6.93
2018-09-02T22:58:43.964Z,13.30
2018-09-02T23:01:12.529Z,4.60
2018-09-02T23:03:41.011Z,4.00
2018-09-02T23:06:09.486Z,5.90
2018-09-02T23:08:38.091Z,6.23
2018-09-02T23:11:06.602Z,40.27
2018-09-02T23:13:35.491Z,66.83
2018-09-02T23:16:04.020Z,24.57
2018-09-02T23:18:32.568Z,32.40
2018-09-02T23:21:01.113Z,9.77
2018-09-02T23:23:29.697Z,5.23
2018-09-02T23:25:58.234Z,4.33
2018-09-02T23:28:26.781Z,9.70
2018-09-02T23:30:55.285Z,7.50
2018-09-02T23:33:23.782Z,4.17
2018-09-02T23:35:52.354Z,5.10
2018-09-02T23:38:20.907Z,4.37
2018-09-02T23:40:49.401Z,3.97
2018-09-02T23:43:17.889Z,4.77
2018-09-02T23:45:46.406Z,4.20
2018-09-02T23:48:14.900Z,4.30
2018-09-02T23:50:43.414Z,3.70
2018-09-02T23:53:11.919Z,4.70
2018-09-02T23:55:40.400Z,6.87
2018-09-02T23:58:08.929Z,3.93
